createdAt,value
2019-04-22T00:01:50.315Z,61.22
2019-04-22T00:04:32.377Z,59.95
2019-04-22T00:07:09.805Z,56.28
2019-04-22T00:09:45.780Z,57.10
2019-04-22T00:14:40.653Z,60.26
2019-04-22T00:17:22.257Z,61.60
2019-04-22T00:19:50.549Z,60.11
2019-04-22T00:24:46.195Z,61.61
2019-04-22T00:27:20.220Z,62.29
2019-04-22T00:29:59.351Z,62.14
2019-04-22T00:32:19.501Z,62.16
2019-04-22T00:34:52.045Z,61.89
2019-04-22T00:37:25.055Z,61.47
2019-04-22T00:39:51.719Z,61.69
2019-04-22T00:42:24.644Z,61.93
2019-04-22T00:44:57.391Z,61.99
2019-04-22T00:47:23.378Z,61.67
2019-04-22T00:52:21.847Z,62.18
2019-04-22T00:54:55.919Z,62.28
2019-04-22T00:57:23.798Z,62.39
2019-04-22T00:59:52.275Z,62.92
2019-04-22T01:04:55.479Z,63.49
2019-04-22T01:07:23.788Z,63.57
2019-04-22T01:09:58.949Z,63.28
2019-04-22T01:12:28.460Z,63.97
2019-04-22T01:14:55.330Z,63.75
2019-04-22T01:17:21.171Z,64.26
2019-04-22T01:19:56.264Z,64.70
2019-04-22T01:22:20.616Z,64.50
2019-04-22T01:24:50.312Z,64.20
2019-04-22T01:27:17.448Z,64.40
2019-04-22T01:29:46.754Z,65.12
2019-04-22T01:32:13.206Z,64.38
2019-04-22T01:34:48.190Z,65.56
2019-04-22T01:37:26.954Z,65.29
2019-04-22T01:40:06.564Z,65.55
2019-04-22T01:42:34.059Z,66.70
2019-04-22T01:44:56.752Z,66.29
2019-04-22T01:47:32.763Z,66.64
2019-04-22T01:50:03.903Z,66.88
2019-04-22T01:52:31.423Z,66.93
2019-04-22T01:55:04.336Z,67.27
2019-04-22T01:57:28.484Z,67.60
2019-04-22T01:59:59.045Z,67.98
2019-04-22T02:05:07.332Z,67.42
2019-04-22T02:07:35.528Z,67.40
2019-04-22T02:10:07.430Z,68.50
2019-04-22T02:12:34.173Z,68.59
2019-04-22T02:15:09.209Z,67.93
2019-04-22T02:17:36.840Z,68.78
2019-04-22T02:20:07.129Z,69.06
2019-04-22T02:22:49.743Z,68.75
2019-04-22T02:25:09.458Z,68.71
2019-04-22T02:27:39.006Z,68.73
2019-04-22T02:30:06.061Z,68.93
2019-04-22T02:32:48.615Z,69.21
2019-04-22T02:35:11.289Z,69.18
2019-04-22T02:37:35.876Z,69.17
2019-04-22T02:40:41.337Z,69.43
2019-04-22T02:42:35.070Z,69.63
2019-04-22T02:45:09.636Z,70.40
2019-04-22T02:47:33.945Z,70.39
2019-04-22T02:52:37.499Z,70.27
2019-04-22T02:55:21.026Z,70.53
2019-04-22T03:00:14.470Z,70.67
2019-04-22T03:02:50.706Z,70.54
2019-04-22T03:05:22.008Z,69.87
2019-04-22T03:07:49.012Z,70.89
2019-04-22T03:10:18.914Z,70.18
2019-04-22T03:15:07.928Z,70.45
2019-04-22T03:20:08.998Z,70.81
2019-04-22T03:25:42.369Z,71.88
2019-04-22T03:33:05.432Z,72.22
2019-04-22T03:40:28.223Z,72.58
2019-04-22T03:42:56.327Z,71.35
2019-04-22T03:45:28.246Z,71.61
2019-04-22T03:50:22.662Z,72.15
2019-04-22T03:52:47.219Z,72.62
2019-04-22T03:55:15.582Z,72.70
2019-04-22T03:57:50.430Z,72.64
2019-04-22T04:00:28.454Z,73.03
2019-04-22T04:10:30.592Z,73.22
2019-04-22T04:12:56.589Z,73.51
2019-04-22T04:15:21.175Z,74.25
2019-04-22T04:25:37.375Z,73.65
2019-04-22T04:28:10.607Z,73.12
2019-04-22T04:30:29.492Z,73.01
2019-04-22T04:32:55.316Z,73.46
2019-04-22T04:35:44.305Z,73.39
2019-04-22T04:37:52.152Z,74.21
2019-04-22T04:43:05.536Z,73.98
2019-04-22T04:45:36.624Z,74.21
2019-04-22T04:47:57.936Z,74.24
2019-04-22T04:50:19.904Z,74.16
2019-04-22T04:58:13.073Z,73.83
2019-04-22T05:02:55.916Z,73.43
2019-04-22T05:05:29.282Z,73.65
2019-04-22T05:10:39.161Z,74.04
2019-04-22T05:18:05.857Z,75.50
2019-04-22T05:20:36.147Z,74.72
2019-04-22T05:22:44.425Z,74.38
2019-04-22T05:25:17.966Z,74.25
2019-04-22T05:27:49.111Z,74.24
2019-04-22T05:35:30.919Z,74.97
2019-04-22T05:37:50.264Z,74.84
2019-04-22T05:42:51.289Z,74.75
2019-04-22T05:45:23.117Z,74.37
2019-04-22T05:50:20.410Z,74.89
2019-04-22T05:52:55.406Z,74.73
2019-04-22T05:55:37.334Z,75.12
2019-04-22T05:57:59.700Z,75.04
2019-04-22T06:02:57.186Z,74.55
2019-04-22T06:05:33.213Z,74.64
2019-04-22T06:08:02.493Z,74.35
2019-04-22T06:10:33.451Z,74.45
2019-04-22T06:12:59.643Z,73.74
2019-04-22T06:15:46.719Z,73.97
2019-04-22T06:18:09.332Z,73.39
2019-04-22T06:20:37.285Z,71.84
2019-04-22T06:28:13.577Z,69.93
2019-04-22T06:33:14.910Z,70.12
2019-04-22T06:38:24.337Z,70.24
2019-04-22T06:40:39.115Z,70.25
2019-04-22T06:43:13.674Z,70.18
2019-04-22T06:45:51.700Z,70.16
2019-04-22T06:48:17.848Z,70.02
2019-04-22T06:50:44.875Z,69.49
2019-04-22T06:53:09.200Z,67.48
2019-04-22T06:55:41.433Z,67.01
2019-04-22T06:58:13.465Z,66.69
2019-04-22T07:00:42.846Z,66.26
2019-04-22T07:03:30.094Z,66.07
2019-04-22T07:05:43.133Z,65.87
2019-04-22T07:08:34.411Z,65.56
2019-04-22T07:10:50.350Z,65.62
2019-04-22T07:13:21.256Z,65.22
2019-04-22T07:15:50.771Z,65.47
2019-04-22T07:18:21.216Z,65.13
2019-04-22T07:20:44.172Z,64.32
2019-04-22T07:24:27.844Z,62.64
2019-04-22T07:31:01.977Z,63.22
2019-04-22T07:33:36.192Z,61.79
2019-04-22T07:36:00.628Z,61.59
2019-04-22T07:38:22.638Z,61.93
2019-04-22T07:40:50.135Z,62.41
2019-04-22T07:43:20.104Z,61.95
2019-04-22T07:48:26.162Z,62.23
2019-04-22T07:51:02.612Z,61.52
2019-04-22T07:53:10.288Z,61.36
2019-04-22T07:55:50.555Z,61.20
2019-04-22T07:58:18.272Z,59.11
2019-04-22T08:00:48.487Z,57.84
2019-04-22T08:03:22.678Z,57.97
2019-04-22T08:05:58.624Z,57.07
2019-04-22T08:08:25.818Z,56.28
2019-04-22T08:10:50.001Z,53.72
2019-04-22T08:13:22.944Z,52.15
2019-04-22T08:18:17.401Z,52.15
2019-04-22T08:20:47.223Z,51.48
2019-04-22T08:23:24.533Z,49.15
2019-04-22T08:25:47.466Z,48.31
2019-04-22T08:28:26.146Z,47.74
2019-04-22T08:30:54.815Z,47.69
2019-04-22T08:33:21.687Z,47.12
2019-04-22T08:36:07.222Z,46.26
2019-04-22T08:38:43.982Z,46.62
2019-04-22T08:41:24.832Z,44.74
2019-04-22T08:43:56.225Z,45.25
2019-04-22T08:46:20.502Z,42.39
2019-04-22T08:48:43.893Z,43.60
2019-04-22T08:51:13.573Z,43.43
2019-04-22T08:53:51.903Z,40.99
2019-04-22T08:56:29.835Z,39.75
2019-04-22T08:58:54.799Z,39.22
2019-04-22T09:01:21.204Z,37.84
2019-04-22T09:03:48.794Z,38.54
2019-04-22T09:06:20.350Z,37.64
2019-04-22T09:08:50.187Z,38.37
2019-04-22T09:11:20.292Z,38.99
2019-04-22T09:13:49.846Z,37.69
2019-04-22T09:16:21.882Z,39.06
2019-04-22T09:18:48.528Z,37.57
2019-04-22T09:21:32.696Z,38.32
2019-04-22T09:23:56.819Z,37.12
2019-04-22T09:26:24.014Z,36.98
2019-04-22T09:28:50.933Z,36.90
2019-04-22T09:31:19.524Z,37.16
2019-04-22T09:33:43.284Z,35.48
2019-04-22T09:36:22.743Z,35.02
2019-04-22T09:38:47.296Z,35.25
2019-04-22T09:41:18.744Z,35.74
2019-04-22T09:43:52.346Z,35.58
2019-04-22T09:46:21.497Z,34.01
2019-04-22T09:48:54.663Z,33.61
2019-04-22T09:51:18.583Z,32.90
2019-04-22T09:53:54.897Z,33.05
2019-04-22T09:56:24.124Z,33.14
2019-04-22T09:58:49.191Z,33.45
2019-04-22T10:01:30.699Z,34.81
2019-04-22T10:03:57.833Z,35.25
2019-04-22T10:06:29.322Z,35.42
2019-04-22T10:09:12.973Z,34.25
2019-04-22T10:11:27.931Z,35.36
2019-04-22T10:13:53.630Z,34.32
2019-04-22T10:16:27.196Z,33.96
2019-04-22T10:18:54.440Z,33.83
2019-04-22T10:21:24.034Z,33.69
2019-04-22T10:23:53.478Z,32.75
2019-04-22T10:26:31.720Z,33.22
2019-04-22T10:31:23.824Z,33.03
2019-04-22T10:33:45.232Z,33.75
2019-04-22T10:35:59.340Z,32.57
2019-04-22T10:38:28.373Z,33.29
2019-04-22T10:40:56.964Z,32.21
2019-04-22T10:43:27.507Z,31.05
2019-04-22T10:45:56.002Z,32.04
2019-04-22T10:48:24.496Z,33.02
2019-04-22T10:50:52.910Z,33.36
2019-04-22T10:53:21.749Z,31.74
2019-04-22T10:55:51.615Z,32.25
2019-04-22T10:58:20.963Z,32.21
2019-04-22T11:00:50.802Z,33.41
2019-04-22T11:03:20.412Z,33.00
2019-04-22T11:05:50.497Z,32.16
2019-04-22T11:08:25.653Z,34.12
2019-04-22T11:11:05.917Z,34.17
2019-04-22T11:13:20.118Z,33.63
2019-04-22T11:15:48.913Z,34.50
2019-04-22T11:18:17.840Z,33.72
2019-04-22T11:20:47.431Z,32.44
2019-04-22T11:23:16.477Z,33.06
2019-04-22T11:25:46.074Z,33.12
2019-04-22T11:28:16.055Z,34.35
2019-04-22T11:30:44.803Z,33.69
2019-04-22T11:33:14.361Z,31.30
2019-04-22T11:35:43.798Z,30.79
2019-04-22T11:38:12.898Z,32.51
2019-04-22T11:40:46.046Z,30.43
2019-04-22T11:43:12.403Z,30.54
2019-04-22T11:45:41.618Z,29.15
2019-04-22T11:48:11.213Z,29.73
2019-04-22T11:50:40.239Z,31.82
2019-04-22T11:53:09.088Z,32.91
2019-04-22T11:55:37.832Z,30.88
2019-04-22T11:58:06.785Z,30.75
2019-04-22T12:00:37.023Z,30.21
2019-04-22T12:03:07.292Z,30.84
2019-04-22T12:05:35.855Z,32.12
2019-04-22T12:08:04.957Z,31.52
2019-04-22T12:10:40.900Z,32.80
2019-04-22T12:13:04.151Z,31.89
2019-04-22T12:15:33.020Z,31.17
2019-04-22T12:18:01.511Z,31.48
2019-04-22T12:20:29.982Z,29.86
2019-04-22T12:22:58.967Z,28.85
2019-04-22T12:25:42.236Z,27.18
2019-04-22T12:27:59.133Z,28.91
2019-04-22T12:30:28.004Z,27.04
2019-04-22T12:32:58.042Z,26.03
2019-04-22T12:35:26.622Z,24.43
2019-04-22T12:37:59.609Z,26.17
2019-04-22T12:40:33.861Z,25.04
2019-04-22T12:42:55.551Z,26.08
2019-04-22T12:45:24.572Z,25.23
2019-04-22T12:47:53.925Z,23.73
2019-04-22T12:50:29.321Z,22.73
2019-04-22T12:52:57.752Z,25.19
2019-04-22T12:55:23.830Z,24.49
2019-04-22T12:57:56.701Z,25.14
2019-04-22T13:00:24.551Z,25.88
2019-04-22T13:02:54.657Z,22.62
2019-04-22T13:05:24.943Z,24.10
2019-04-22T13:07:53.813Z,22.82
2019-04-22T13:10:24.011Z,23.62
2019-04-22T13:12:53.048Z,22.49
2019-04-22T13:15:23.847Z,22.46
2019-04-22T13:20:39.793Z,25.59
2019-04-22T13:23:09.462Z,23.63
2019-04-22T13:25:38.915Z,24.68
2019-04-22T13:28:09.232Z,22.89
2019-04-22T13:30:38.665Z,21.33
2019-04-22T13:33:07.181Z,22.72
2019-04-22T13:35:36.208Z,21.06
2019-04-22T13:38:04.896Z,21.46
2019-04-22T13:40:34.826Z,21.66
2019-04-22T13:43:04.616Z,22.01
2019-04-22T13:45:33.958Z,22.29
2019-04-22T13:48:16.647Z,21.43
2019-04-22T13:51:18.598Z,22.59
2019-04-22T13:55:57.923Z,21.09
2019-04-22T13:58:14.096Z,22.79
2019-04-22T14:00:34.619Z,22.77
2019-04-22T14:03:18.362Z,20.35
2019-04-22T14:05:48.812Z,21.24
2019-04-22T14:08:18.443Z,21.26
2019-04-22T14:10:48.405Z,22.02
2019-04-22T14:13:17.034Z,21.91
2019-04-22T14:15:46.571Z,21.52
2019-04-22T14:18:15.273Z,21.80
2019-04-22T14:20:44.960Z,21.34
2019-04-22T14:23:15.262Z,22.57
2019-04-22T14:25:43.766Z,22.79
2019-04-22T14:28:17.365Z,22.85
2019-04-22T14:30:42.643Z,23.81
2019-04-22T14:33:12.103Z,22.92
2019-04-22T14:35:41.589Z,22.28
2019-04-22T14:38:10.255Z,23.64
2019-04-22T14:40:40.974Z,23.45
2019-04-22T14:43:29.005Z,23.47
2019-04-22T14:46:08.062Z,22.92
2019-04-22T14:48:36.303Z,23.06
2019-04-22T14:50:59.125Z,22.10
2019-04-22T14:53:31.079Z,22.68
2019-04-22T14:55:40.430Z,22.17
2019-04-22T14:58:09.202Z,23.26
2019-04-22T15:00:38.242Z,23.30
2019-04-22T15:03:08.218Z,23.17
2019-04-22T15:05:37.416Z,23.78
2019-04-22T15:08:07.067Z,23.98
2019-04-22T15:10:36.075Z,23.50
2019-04-22T15:13:05.368Z,24.34
2019-04-22T15:15:45.217Z,23.12
2019-04-22T15:18:10.498Z,23.21
2019-04-22T15:20:50.281Z,22.90
2019-04-22T15:23:16.901Z,25.07
2019-04-22T15:25:46.435Z,23.71
2019-04-22T15:28:17.543Z,24.68
2019-04-22T15:30:47.717Z,23.63
2019-04-22T15:33:17.245Z,23.69
2019-04-22T15:35:47.117Z,23.40
2019-04-22T15:38:15.785Z,23.60
2019-04-22T15:40:46.861Z,24.22
2019-04-22T15:43:16.979Z,25.40
2019-04-22T15:45:46.592Z,24.96
2019-04-22T15:48:16.763Z,24.64
2019-04-22T15:50:46.710Z,23.85
2019-04-22T15:53:15.826Z,23.48
2019-04-22T15:55:44.901Z,24.43
2019-04-22T15:58:13.545Z,25.42
2019-04-22T16:00:54.064Z,25.16
2019-04-22T16:03:12.619Z,24.14
2019-04-22T16:05:41.837Z,25.00
2019-04-22T16:08:10.849Z,24.83
2019-04-22T16:10:39.875Z,23.58
2019-04-22T16:13:16.448Z,24.19
2019-04-22T16:15:38.515Z,25.07
2019-04-22T16:18:09.416Z,25.21
2019-04-22T16:20:38.412Z,26.22
2019-04-22T16:23:15.598Z,24.06
2019-04-22T16:25:55.497Z,23.75
2019-04-22T16:28:25.131Z,26.25
2019-04-22T16:30:55.365Z,23.29
2019-04-22T16:33:25.517Z,25.09
2019-04-22T16:35:55.078Z,24.24
2019-04-22T16:38:24.762Z,25.83
2019-04-22T16:40:54.629Z,22.66
2019-04-22T16:43:24.590Z,23.16
2019-04-22T16:45:53.850Z,24.97
2019-04-22T16:48:22.446Z,25.14
2019-04-22T16:50:52.815Z,24.55
2019-04-22T16:53:23.207Z,24.82
2019-04-22T16:55:52.955Z,24.17
2019-04-22T16:58:23.131Z,24.45
2019-04-22T17:00:52.459Z,23.29
2019-04-22T17:03:23.076Z,22.77
2019-04-22T17:05:55.999Z,24.22
2019-04-22T17:08:24.706Z,24.95
2019-04-22T17:10:53.616Z,23.83
2019-04-22T17:13:28.359Z,24.38
2019-04-22T17:15:52.344Z,25.99
2019-04-22T17:18:21.359Z,25.46
2019-04-22T17:20:50.816Z,23.21
2019-04-22T17:23:20.023Z,24.54
2019-04-22T17:25:50.255Z,25.04
2019-04-22T17:28:19.348Z,25.32
2019-04-22T17:30:48.035Z,25.32
2019-04-22T17:33:16.859Z,24.58
2019-04-22T17:35:48.507Z,26.32
2019-04-22T17:38:23.760Z,26.82
2019-04-22T17:41:01.299Z,25.78
2019-04-22T17:43:50.637Z,26.32
2019-04-22T17:46:19.600Z,26.43
2019-04-22T17:48:58.834Z,26.65
2019-04-22T17:54:02.630Z,27.65
2019-04-22T17:56:33.984Z,27.62
2019-04-22T17:58:56.816Z,27.94
2019-04-22T18:01:29.523Z,28.97
2019-04-22T18:03:47.388Z,28.24
2019-04-22T18:06:34.839Z,29.06
2019-04-22T18:09:01.868Z,29.06
2019-04-22T18:11:34.710Z,29.55
2019-04-22T18:14:11.687Z,28.66
2019-04-22T18:16:29.423Z,29.17
2019-04-22T18:19:01.131Z,29.64
2019-04-22T18:21:28.942Z,29.78
2019-04-22T18:23:53.032Z,29.77
2019-04-22T18:26:30.636Z,29.73
2019-04-22T18:29:00.865Z,30.34
2019-04-22T18:31:21.536Z,30.67
2019-04-22T18:33:59.472Z,30.40
2019-04-22T18:36:29.199Z,30.21
2019-04-22T18:39:06.267Z,31.28
2019-04-22T18:41:30.778Z,30.42
2019-04-22T18:44:06.286Z,30.63
2019-04-22T18:46:32.961Z,29.84
2019-04-22T18:49:03.398Z,29.03
2019-04-22T18:51:40.931Z,29.52
2019-04-22T18:54:11.888Z,29.60
2019-04-22T18:56:47.288Z,30.47
2019-04-22T18:59:07.755Z,29.89
2019-04-22T19:01:25.680Z,30.01
2019-04-22T19:04:04.716Z,30.66
2019-04-22T19:06:45.955Z,30.96
2019-04-22T19:09:23.820Z,30.58
2019-04-22T19:11:51.704Z,30.31
2019-04-22T19:14:43.598Z,31.22
2019-04-22T19:16:47.934Z,31.74
2019-04-22T19:19:35.289Z,31.54
2019-04-22T19:21:49.994Z,31.35
2019-04-22T19:24:17.426Z,31.66
2019-04-22T19:29:23.387Z,30.23
2019-04-22T19:34:38.495Z,32.07
2019-04-22T19:37:07.118Z,31.94
2019-04-22T19:39:31.098Z,32.57
2019-04-22T19:42:31.098Z,31.28
2019-04-22T19:44:39.254Z,31.28
2019-04-22T19:47:26.903Z,31.32
2019-04-22T19:49:49.469Z,31.32
2019-04-22T19:52:12.911Z,32.31
2019-04-22T19:54:35.801Z,33.02
2019-04-22T19:57:03.674Z,31.86
2019-04-22T19:59:36.400Z,31.86
2019-04-22T20:02:25.010Z,31.41
2019-04-22T20:05:05.809Z,32.02
2019-04-22T20:07:27.769Z,32.01
2019-04-22T20:10:05.313Z,32.10
2019-04-22T20:12:30.884Z,30.97
2019-04-22T20:15:02.311Z,32.42
2019-04-22T20:17:33.027Z,31.95
2019-04-22T20:20:24.588Z,31.33
2019-04-22T20:22:30.080Z,32.40
2019-04-22T20:24:53.328Z,33.01
2019-04-22T20:27:39.321Z,32.01
2019-04-22T20:30:04.632Z,31.50
2019-04-22T20:32:36.358Z,31.63
2019-04-22T20:35:09.363Z,31.73
2019-04-22T20:37:39.969Z,31.62
2019-04-22T20:40:08.415Z,32.13
2019-04-22T20:42:46.777Z,31.29
2019-04-22T20:45:13.123Z,31.74
2019-04-22T20:47:30.413Z,32.98
2019-04-22T20:50:05.514Z,31.89
2019-04-22T20:52:39.892Z,31.23
2019-04-22T20:55:02.548Z,31.25
2019-04-22T20:57:34.829Z,31.73
2019-04-22T21:00:02.469Z,32.50
2019-04-22T21:02:31.270Z,31.65
2019-04-22T21:04:54.642Z,32.00
2019-04-22T21:07:32.054Z,32.63
2019-04-22T21:10:09.085Z,32.81
2019-04-22T21:12:31.651Z,32.95
2019-04-22T21:15:12.557Z,32.55
2019-04-22T21:17:42.625Z,33.82
2019-04-22T21:20:18.599Z,32.72
2019-04-22T21:22:41.747Z,33.50
2019-04-22T21:25:05.901Z,34.41
2019-04-22T21:27:45.343Z,33.05
2019-04-22T21:30:03.368Z,32.98
2019-04-22T21:32:39.889Z,32.99
2019-04-22T21:35:18.279Z,33.67
2019-04-22T21:37:43.054Z,34.18
2019-04-22T21:40:09.513Z,32.98
2019-04-22T21:42:47.295Z,33.23
2019-04-22T21:45:07.268Z,34.03
2019-04-22T21:47:55.634Z,33.64
2019-04-22T21:50:28.243Z,33.75
2019-04-22T21:52:46.019Z,34.41
2019-04-22T21:55:16.961Z,34.66
2019-04-22T21:58:09.424Z,34.66
2019-04-22T22:00:48.379Z,33.88
2019-04-22T22:03:05.878Z,33.86
2019-04-22T22:05:28.434Z,34.83
2019-04-22T22:07:53.497Z,33.97
2019-04-22T22:10:37.000Z,34.57
2019-04-22T22:13:06.179Z,34.35
2019-04-22T22:15:37.696Z,35.35
2019-04-22T22:18:05.180Z,34.51
2019-04-22T22:20:43.230Z,37.08
2019-04-22T22:23:16.100Z,36.75
2019-04-22T22:25:34.885Z,36.11
2019-04-22T22:28:28.343Z,36.51
2019-04-22T22:30:50.683Z,36.84
2019-04-22T22:33:10.918Z,37.37
2019-04-22T22:35:36.095Z,37.08
2019-04-22T22:38:08.775Z,36.79
2019-04-22T22:40:25.602Z,37.89
2019-04-22T22:42:53.161Z,37.47
2019-04-22T22:45:32.026Z,37.60
2019-04-22T22:48:13.393Z,36.77
2019-04-22T22:50:38.183Z,37.30
2019-04-22T22:53:25.586Z,37.79
2019-04-22T22:55:41.010Z,36.96
2019-04-22T22:58:16.398Z,38.16
2019-04-22T23:00:39.329Z,37.64
2019-04-22T23:05:45.352Z,37.66
2019-04-22T23:08:17.031Z,37.83
2019-04-22T23:10:52.213Z,38.67
2019-04-22T23:15:38.480Z,37.76
2019-04-22T23:17:54.116Z,37.63
2019-04-22T23:20:30.260Z,39.33
2019-04-22T23:23:15.361Z,38.71
2019-04-22T23:25:51.464Z,38.39
2019-04-22T23:28:13.124Z,39.65
2019-04-22T23:30:52.845Z,40.60
2019-04-22T23:33:44.724Z,39.29
2019-04-22T23:36:22.995Z,39.00
2019-04-22T23:39:13.865Z,39.50
2019-04-22T23:44:11.347Z,40.17
2019-04-22T23:46:46.548Z,40.86
2019-04-22T23:49:18.104Z,40.83
2019-04-22T23:52:02.740Z,41.17
2019-04-22T23:54:35.801Z,41.28
2019-04-22T23:56:52.633Z,41.88
2019-04-22T23:59:38.643Z,42.50
